sensor_id;sensor_type;location;lat;lon;timestamp;P1;durP1;ratioP1;P2;durP2;ratioP2
7919;SDS011;18778;47.610;9.776;2023-02-26T00:00:25;4.50;;;3.70;;
7919;SDS011;18778;47.610;9.776;2023-02-26T00:02:51;5.53;;;4.30;;
7919;SDS011;18778;47.610;9.776;2023-02-26T00:05:16;6.53;;;4.00;;
7919;SDS011;18778;47.610;9.776;2023-02-26T00:07:42;6.73;;;4.50;;
7919;SDS011;18778;47.610;9.776;2023-02-26T00:10:09;5.90;;;4.63;;
7919;SDS011;18778;47.610;9.776;2023-02-26T00:12:37;4.63;;;4.20;;
7919;SDS011;18778;47.610;9.776;2023-02-26T00:15:04;5.00;;;4.07;;
7919;SDS011;18778;47.610;9.776;2023-02-26T00:17:44;4.77;;;4.37;;
7919;SDS011;18778;47.610;9.776;2023-02-26T00:20:11;6.43;;;4.27;;
7919;SDS011;18778;47.610;9.776;2023-02-26T00:22:40;4.90;;;4.50;;
7919;SDS011;18778;47.610;9.776;2023-02-26T00:25:06;4.60;;;4.20;;
7919;SDS011;18778;47.610;9.776;2023-02-26T00:27:32;5.40;;;4.80;;
7919;SDS011;18778;47.610;9.776;2023-02-26T00:29:58;5.40;;;4.90;;
7919;SDS011;18778;47.610;9.776;2023-02-26T00:32:24;6.17;;;4.80;;
7919;SDS011;18778;47.610;9.776;2023-02-26T00:34:50;5.03;;;4.53;;
7919;SDS011;18778;47.610;9.776;2023-02-26T00:42:38;5.30;;;4.80;;
7919;SDS011;18778;47.610;9.776;2023-02-26T00:45:03;5.33;;;4.83;;
7919;SDS011;18778;47.610;9.776;2023-02-26T00:47:39;7.57;;;5.10;;
7919;SDS011;18778;47.610;9.776;2023-02-26T00:50:20;6.83;;;5.30;;
7919;SDS011;18778;47.610;9.776;2023-02-26T00:55:33;6.77;;;5.23;;
7919;SDS011;18778;47.610;9.776;2023-02-26T00:57:59;5.20;;;4.70;;
7919;SDS011;18778;47.610;9.776;2023-02-26T01:00:24;5.70;;;5.13;;
7919;SDS011;18778;47.610;9.776;2023-02-26T01:02:51;6.37;;;5.67;;
7919;SDS011;18778;47.610;9.776;2023-02-26T01:05:17;6.97;;;5.77;;
7919;SDS011;18778;47.610;9.776;2023-02-26T01:07:51;7.23;;;5.67;;
7919;SDS011;18778;47.610;9.776;2023-02-26T01:10:31;7.47;;;5.50;;
7919;SDS011;18778;47.610;9.776;2023-02-26T01:12:57;6.13;;;5.53;;
7919;SDS011;18778;47.610;9.776;2023-02-26T01:15:23;7.53;;;5.90;;
7919;SDS011;18778;47.610;9.776;2023-02-26T01:17:51;6.67;;;5.63;;
7919;SDS011;18778;47.610;9.776;2023-02-26T01:20:21;7.17;;;6.23;;
7919;SDS011;18778;47.610;9.776;2023-02-26T01:22:53;11.57;;;6.17;;
7919;SDS011;18778;47.610;9.776;2023-02-26T01:27:54;7.20;;;6.50;;
7919;SDS011;18778;47.610;9.776;2023-02-26T01:30:23;9.17;;;6.57;;
7919;SDS011;18778;47.610;9.776;2023-02-26T01:35:55;8.07;;;6.67;;
7919;SDS011;18778;47.610;9.776;2023-02-26T01:38:38;7.77;;;6.40;;
7919;SDS011;18778;47.610;9.776;2023-02-26T01:49:11;7.60;;;5.83;;
7919;SDS011;18778;47.610;9.776;2023-02-26T01:51:43;6.37;;;5.50;;
7919;SDS011;18778;47.610;9.776;2023-02-26T01:54:19;8.40;;;5.73;;
7919;SDS011;18778;47.610;9.776;2023-02-26T01:56:46;6.57;;;5.67;;
7919;SDS011;18778;47.610;9.776;2023-02-26T01:59:19;6.27;;;5.67;;
7919;SDS011;18778;47.610;9.776;2023-02-26T02:01:49;6.70;;;5.90;;
7919;SDS011;18778;47.610;9.776;2023-02-26T02:04:16;6.00;;;5.23;;
7919;SDS011;18778;47.610;9.776;2023-02-26T02:06:42;6.20;;;5.10;;
7919;SDS011;18778;47.610;9.776;2023-02-26T02:09:09;5.40;;;4.77;;
7919;SDS011;18778;47.610;9.776;2023-02-26T02:11:42;6.27;;;4.90;;
7919;SDS011;18778;47.610;9.776;2023-02-26T02:14:20;6.27;;;5.07;;
7919;SDS011;18778;47.610;9.776;2023-02-26T02:16:58;4.93;;;4.53;;
7919;SDS011;18778;47.610;9.776;2023-02-26T02:20:20;5.50;;;4.90;;
7919;SDS011;18778;47.610;9.776;2023-02-26T02:31:49;6.27;;;5.03;;
7919;SDS011;18778;47.610;9.776;2023-02-26T02:34:24;6.03;;;4.77;;
7919;SDS011;18778;47.610;9.776;2023-02-26T02:39:32;4.60;;;4.20;;
7919;SDS011;18778;47.610;9.776;2023-02-26T02:42:19;5.30;;;4.90;;
7919;SDS011;18778;47.610;9.776;2023-02-26T02:45:08;4.77;;;4.40;;
7919;SDS011;18778;47.610;9.776;2023-02-26T02:47:40;4.67;;;4.27;;
7919;SDS011;18778;47.610;9.776;2023-02-26T02:50:29;5.60;;;4.50;;
7919;SDS011;18778;47.610;9.776;2023-02-26T02:53:02;4.97;;;4.57;;
7919;SDS011;18778;47.610;9.776;2023-02-26T02:55:33;4.53;;;3.97;;
7919;SDS011;18778;47.610;9.776;2023-02-26T02:58:13;5.83;;;4.43;;
7919;SDS011;18778;47.610;9.776;2023-02-26T03:00:46;5.00;;;4.27;;
7919;SDS011;18778;47.610;9.776;2023-02-26T03:03:36;4.50;;;4.10;;
7919;SDS011;18778;47.610;9.776;2023-02-26T03:06:18;4.20;;;3.90;;
7919;SDS011;18778;47.610;9.776;2023-02-26T03:08:45;4.43;;;4.03;;
7919;SDS011;18778;47.610;9.776;2023-02-26T03:11:12;6.23;;;4.20;;
7919;SDS011;18778;47.610;9.776;2023-02-26T03:13:38;4.10;;;3.70;;
7919;SDS011;18778;47.610;9.776;2023-02-26T03:24:18;5.03;;;4.53;;
7919;SDS011;18778;47.610;9.776;2023-02-26T03:26:46;4.40;;;4.00;;
7919;SDS011;18778;47.610;9.776;2023-02-26T03:35:58;4.90;;;4.50;;
7919;SDS011;18778;47.610;9.776;2023-02-26T03:38:18;5.00;;;4.37;;
7919;SDS011;18778;47.610;9.776;2023-02-26T03:40:57;5.27;;;4.73;;
7919;SDS011;18778;47.610;9.776;2023-02-26T03:43:35;5.20;;;4.70;;
7919;SDS011;18778;47.610;9.776;2023-02-26T03:46:23;5.87;;;4.80;;
7919;SDS011;18778;47.610;9.776;2023-02-26T03:48:53;6.17;;;5.50;;
7919;SDS011;18778;47.610;9.776;2023-02-26T03:51:21;5.47;;;4.73;;
7919;SDS011;18778;47.610;9.776;2023-02-26T03:53:51;5.33;;;4.83;;
7919;SDS011;18778;47.610;9.776;2023-02-26T03:56:28;5.20;;;4.70;;
7919;SDS011;18778;47.610;9.776;2023-02-26T03:58:59;6.73;;;5.17;;
7919;SDS011;18778;47.610;9.776;2023-02-26T04:01:26;6.10;;;5.50;;
7919;SDS011;18778;47.610;9.776;2023-02-26T04:03:59;5.60;;;5.10;;
7919;SDS011;18778;47.610;9.776;2023-02-26T04:06:34;5.77;;;5.20;;
7919;SDS011;18778;47.610;9.776;2023-02-26T04:09:00;10.03;;;5.83;;
7919;SDS011;18778;47.610;9.776;2023-02-26T04:11:27;6.37;;;5.50;;
7919;SDS011;18778;47.610;9.776;2023-02-26T04:13:54;6.37;;;5.70;;
7919;SDS011;18778;47.610;9.776;2023-02-26T04:16:20;5.57;;;5.07;;
7919;SDS011;18778;47.610;9.776;2023-02-26T04:18:46;5.70;;;5.20;;
7919;SDS011;18778;47.610;9.776;2023-02-26T04:21:12;4.77;;;4.37;;
7919;SDS011;18778;47.610;9.776;2023-02-26T04:23:39;5.30;;;4.90;;
7919;SDS011;18778;47.610;9.776;2023-02-26T04:26:05;4.60;;;4.20;;
7919;SDS011;18778;47.610;9.776;2023-02-26T04:28:31;4.67;;;4.27;;
7919;SDS011;18778;47.610;9.776;2023-02-26T04:30:57;5.33;;;4.63;;
7919;SDS011;18778;47.610;9.776;2023-02-26T04:33:23;5.37;;;4.40;;
7919;SDS011;18778;47.610;9.776;2023-02-26T04:35:50;6.60;;;4.40;;
7919;SDS011;18778;47.610;9.776;2023-02-26T04:38:16;4.57;;;4.10;;
7919;SDS011;18778;47.610;9.776;2023-02-26T04:40:41;4.83;;;4.30;;
7919;SDS011;18778;47.610;9.776;2023-02-26T04:43:07;4.20;;;3.90;;
7919;SDS011;18778;47.610;9.776;2023-02-26T04:45:32;4.33;;;4.03;;
7919;SDS011;18778;47.610;9.776;2023-02-26T04:47:58;5.50;;;3.80;;
7919;SDS011;18778;47.610;9.776;2023-02-26T04:50:23;4.30;;;4.00;;
7919;SDS011;18778;47.610;9.776;2023-02-26T04:52:49;3.77;;;3.47;;
7919;SDS011;18778;47.610;9.776;2023-02-26T04:55:15;4.43;;;3.60;;
7919;SDS011;18778;47.610;9.776;2023-02-26T04:57:40;3.73;;;3.40;;
7919;SDS011;18778;47.610;9.776;2023-02-26T05:00:06;4.43;;;3.50;;
7919;SDS011;18778;47.610;9.776;2023-02-26T05:02:32;4.30;;;3.90;;
7919;SDS011;18778;47.610;9.776;2023-02-26T05:04:58;5.13;;;3.90;;
7919;SDS011;18778;47.610;9.776;2023-02-26T05:07:23;4.50;;;4.13;;
7919;SDS011;18778;47.610;9.776;2023-02-26T05:09:49;3.80;;;3.50;;
7919;SDS011;18778;47.610;9.776;2023-02-26T05:12:15;4.23;;;3.83;;
7919;SDS011;18778;47.610;9.776;2023-02-26T05:14:40;4.63;;;4.23;;
7919;SDS011;18778;47.610;9.776;2023-02-26T05:17:06;5.70;;;3.93;;
7919;SDS011;18778;47.610;9.776;2023-02-26T05:19:31;5.83;;;3.50;;
7919;SDS011;18778;47.610;9.776;2023-02-26T05:21:57;4.43;;;4.03;;
7919;SDS011;18778;47.610;9.776;2023-02-26T05:24:22;5.90;;;4.17;;
7919;SDS011;18778;47.610;9.776;2023-02-26T05:26:48;5.90;;;3.80;;
7919;SDS011;18778;47.610;9.776;2023-02-26T05:29:14;4.97;;;4.47;;
7919;SDS011;18778;47.610;9.776;2023-02-26T05:31:39;4.53;;;4.13;;
7919;SDS011;18778;47.610;9.776;2023-02-26T05:34:05;5.87;;;4.23;;
7919;SDS011;18778;47.610;9.776;2023-02-26T05:36:31;4.60;;;4.30;;
7919;SDS011;18778;47.610;9.776;2023-02-26T05:38:57;5.53;;;4.23;;
7919;SDS011;18778;47.610;9.776;2023-02-26T05:41:22;4.63;;;3.97;;
7919;SDS011;18778;47.610;9.776;2023-02-26T05:43:48;4.93;;;3.80;;
7919;SDS011;18778;47.610;9.776;2023-02-26T05:46:14;4.67;;;4.27;;
7919;SDS011;18778;47.610;9.776;2023-02-26T05:48:40;4.23;;;3.93;;
7919;SDS011;18778;47.610;9.776;2023-02-26T05:51:05;5.10;;;4.10;;
7919;SDS011;18778;47.610;9.776;2023-02-26T05:53:31;6.07;;;4.27;;
7919;SDS011;18778;47.610;9.776;2023-02-26T05:55:56;4.13;;;3.83;;
7919;SDS011;18778;47.610;9.776;2023-02-26T05:58:22;4.70;;;4.30;;
7919;SDS011;18778;47.610;9.776;2023-02-26T06:00:47;4.50;;;4.10;;
7919;SDS011;18778;47.610;9.776;2023-02-26T06:03:13;6.37;;;4.87;;
7919;SDS011;18778;47.610;9.776;2023-02-26T06:05:39;7.63;;;5.03;;
7919;SDS011;18778;47.610;9.776;2023-02-26T06:08:04;5.10;;;4.60;;
7919;SDS011;18778;47.610;9.776;2023-02-26T06:10:30;4.77;;;4.23;;
7919;SDS011;18778;47.610;9.776;2023-02-26T06:12:56;6.03;;;5.00;;
7919;SDS011;18778;47.610;9.776;2023-02-26T06:15:22;9.77;;;6.57;;
7919;SDS011;18778;47.610;9.776;2023-02-26T06:17:48;10.20;;;6.33;;
7919;SDS011;18778;47.610;9.776;2023-02-26T06:20:14;9.97;;;5.50;;
7919;SDS011;18778;47.610;9.776;2023-02-26T06:22:40;9.07;;;4.73;;
7919;SDS011;18778;47.610;9.776;2023-02-26T06:25:05;6.80;;;4.87;;
7919;SDS011;18778;47.610;9.776;2023-02-26T06:27:31;4.67;;;4.27;;
7919;SDS011;18778;47.610;9.776;2023-02-26T06:29:57;5.77;;;4.67;;
7919;SDS011;18778;47.610;9.776;2023-02-26T06:32:22;5.37;;;4.70;;
7919;SDS011;18778;47.610;9.776;2023-02-26T06:34:48;4.80;;;4.47;;
7919;SDS011;18778;47.610;9.776;2023-02-26T06:37:14;5.43;;;4.93;;
7919;SDS011;18778;47.610;9.776;2023-02-26T06:39:40;5.80;;;4.90;;
7919;SDS011;18778;47.610;9.776;2023-02-26T06:42:05;7.33;;;4.53;;
7919;SDS011;18778;47.610;9.776;2023-02-26T06:44:31;5.60;;;4.10;;
7919;SDS011;18778;47.610;9.776;2023-02-26T06:46:57;8.43;;;4.90;;
7919;SDS011;18778;47.610;9.776;2023-02-26T06:49:22;5.77;;;4.90;;
7919;SDS011;18778;47.610;9.776;2023-02-26T06:51:48;5.10;;;4.70;;
7919;SDS011;18778;47.610;9.776;2023-02-26T06:54:13;4.73;;;4.43;;
7919;SDS011;18778;47.610;9.776;2023-02-26T06:56:39;7.47;;;4.20;;
7919;SDS011;18778;47.610;9.776;2023-02-26T06:59:04;6.80;;;4.33;;
7919;SDS011;18778;47.610;9.776;2023-02-26T07:01:30;8.97;;;4.73;;
7919;SDS011;18778;47.610;9.776;2023-02-26T07:03:56;40.07;;;19.17;;
7919;SDS011;18778;47.610;9.776;2023-02-26T07:06:21;13.00;;;7.70;;
7919;SDS011;18778;47.610;9.776;2023-02-26T07:08:47;6.83;;;5.23;;
7919;SDS011;18778;47.610;9.776;2023-02-26T07:11:13;8.10;;;6.43;;
7919;SDS011;18778;47.610;9.776;2023-02-26T07:13:39;8.10;;;6.50;;
7919;SDS011;18778;47.610;9.776;2023-02-26T07:16:05;8.13;;;6.90;;
7919;SDS011;18778;47.610;9.776;2023-02-26T07:18:34;6.40;;;5.67;;
7919;SDS011;18778;47.610;9.776;2023-02-26T07:21:00;6.93;;;4.90;;
7919;SDS011;18778;47.610;9.776;2023-02-26T07:23:27;5.33;;;4.70;;
7919;SDS011;18778;47.610;9.776;2023-02-26T07:25:52;4.80;;;4.10;;
7919;SDS011;18778;47.610;9.776;2023-02-26T07:28:18;15.20;;;9.77;;
7919;SDS011;18778;47.610;9.776;2023-02-26T07:30:44;9.30;;;6.13;;
7919;SDS011;18778;47.610;9.776;2023-02-26T07:33:10;13.03;;;5.80;;
7919;SDS011;18778;47.610;9.776;2023-02-26T07:35:37;16.47;;;6.17;;
7919;SDS011;18778;47.610;9.776;2023-02-26T07:38:02;19.60;;;7.97;;
7919;SDS011;18778;47.610;9.776;2023-02-26T07:40:28;86.07;;;24.30;;
7919;SDS011;18778;47.610;9.776;2023-02-26T07:42:54;55.77;;;20.63;;
7919;SDS011;18778;47.610;9.776;2023-02-26T07:45:19;19.53;;;12.60;;
7919;SDS011;18778;47.610;9.776;2023-02-26T07:47:55;13.73;;;8.47;;
7919;SDS011;18778;47.610;9.776;2023-02-26T07:50:21;14.40;;;10.03;;
7919;SDS011;18778;47.610;9.776;2023-02-26T07:52:49;11.57;;;8.40;;
7919;SDS011;18778;47.610;9.776;2023-02-26T07:55:17;10.40;;;8.33;;
7919;SDS011;18778;47.610;9.776;2023-02-26T07:57:42;19.30;;;11.80;;
7919;SDS011;18778;47.610;9.776;2023-02-26T08:00:08;10.67;;;9.50;;
7919;SDS011;18778;47.610;9.776;2023-02-26T08:02:34;7.93;;;7.10;;
7919;SDS011;18778;47.610;9.776;2023-02-26T08:05:00;6.17;;;5.57;;
7919;SDS011;18778;47.610;9.776;2023-02-26T08:07:25;5.30;;;4.80;;
7919;SDS011;18778;47.610;9.776;2023-02-26T08:09:51;7.23;;;4.90;;
7919;SDS011;18778;47.610;9.776;2023-02-26T08:12:17;8.73;;;4.70;;
7919;SDS011;18778;47.610;9.776;2023-02-26T08:14:42;4.50;;;4.10;;
7919;SDS011;18778;47.610;9.776;2023-02-26T08:17:08;4.80;;;4.37;;
7919;SDS011;18778;47.610;9.776;2023-02-26T08:19:34;4.67;;;4.20;;
7919;SDS011;18778;47.610;9.776;2023-02-26T08:21:59;4.50;;;4.10;;
7919;SDS011;18778;47.610;9.776;2023-02-26T08:24:25;4.20;;;3.80;;
7919;SDS011;18778;47.610;9.776;2023-02-26T08:26:51;5.80;;;4.80;;
7919;SDS011;18778;47.610;9.776;2023-02-26T08:29:16;4.43;;;3.93;;
7919;SDS011;18778;47.610;9.776;2023-02-26T08:31:42;4.30;;;3.83;;
7919;SDS011;18778;47.610;9.776;2023-02-26T08:34:08;3.70;;;3.40;;
7919;SDS011;18778;47.610;9.776;2023-02-26T08:36:34;4.40;;;4.07;;
7919;SDS011;18778;47.610;9.776;2023-02-26T08:39:00;5.80;;;3.53;;
7919;SDS011;18778;47.610;9.776;2023-02-26T08:41:25;4.07;;;3.67;;
7919;SDS011;18778;47.610;9.776;2023-02-26T08:43:56;4.40;;;4.00;;
7919;SDS011;18778;47.610;9.776;2023-02-26T08:46:23;7.37;;;4.73;;
7919;SDS011;18778;47.610;9.776;2023-02-26T08:48:48;5.30;;;4.70;;
7919;SDS011;18778;47.610;9.776;2023-02-26T08:51:14;5.90;;;3.87;;
7919;SDS011;18778;47.610;9.776;2023-02-26T08:53:40;4.80;;;4.30;;
7919;SDS011;18778;47.610;9.776;2023-02-26T08:56:05;9.37;;;4.33;;
7919;SDS011;18778;47.610;9.776;2023-02-26T08:58:34;4.37;;;3.57;;
7919;SDS011;18778;47.610;9.776;2023-02-26T09:00:59;5.57;;;3.50;;
7919;SDS011;18778;47.610;9.776;2023-02-26T09:03:25;4.57;;;4.03;;
7919;SDS011;18778;47.610;9.776;2023-02-26T09:05:50;4.00;;;3.70;;
7919;SDS011;18778;47.610;9.776;2023-02-26T09:08:16;7.30;;;3.83;;
7919;SDS011;18778;47.610;9.776;2023-02-26T09:10:43;4.30;;;3.47;;
7919;SDS011;18778;47.610;9.776;2023-02-26T09:13:09;8.50;;;4.00;;
7919;SDS011;18778;47.610;9.776;2023-02-26T09:15:34;5.03;;;3.77;;
7919;SDS011;18778;47.610;9.776;2023-02-26T09:18:00;3.87;;;3.57;;
7919;SDS011;18778;47.610;9.776;2023-02-26T09:20:25;4.07;;;3.73;;
7919;SDS011;18778;47.610;9.776;2023-02-26T09:22:51;9.10;;;4.03;;
7919;SDS011;18778;47.610;9.776;2023-02-26T09:25:17;6.67;;;4.47;;
7919;SDS011;18778;47.610;9.776;2023-02-26T09:27:42;4.77;;;4.20;;
7919;SDS011;18778;47.610;9.776;2023-02-26T09:30:08;4.33;;;3.97;;
7919;SDS011;18778;47.610;9.776;2023-02-26T09:32:34;5.00;;;3.80;;
7919;SDS011;18778;47.610;9.776;2023-02-26T09:35:00;5.77;;;4.20;;
7919;SDS011;18778;47.610;9.776;2023-02-26T09:37:26;6.17;;;3.77;;
7919;SDS011;18778;47.610;9.776;2023-02-26T09:39:52;4.10;;;3.70;;
7919;SDS011;18778;47.610;9.776;2023-02-26T09:44:55;4.10;;;3.70;;
7919;SDS011;18778;47.610;9.776;2023-02-26T09:47:32;7.53;;;3.97;;
7919;SDS011;18778;47.610;9.776;2023-02-26T09:50:21;5.23;;;3.60;;
7919;SDS011;18778;47.610;9.776;2023-02-26T09:53:26;6.10;;;3.70;;
7919;SDS011;18778;47.610;9.776;2023-02-26T09:56:05;4.93;;;3.70;;
7919;SDS011;18778;47.610;9.776;2023-02-26T09:58:37;3.60;;;3.30;;
7919;SDS011;18778;47.610;9.776;2023-02-26T10:06:20;4.73;;;3.70;;
7919;SDS011;18778;47.610;9.776;2023-02-26T10:09:03;4.00;;;3.30;;
7919;SDS011;18778;47.610;9.776;2023-02-26T10:12:01;3.83;;;3.47;;
7919;SDS011;18778;47.610;9.776;2023-02-26T10:19:44;5.73;;;3.23;;
7919;SDS011;18778;47.610;9.776;2023-02-26T10:22:27;3.60;;;3.30;;
7919;SDS011;18778;47.610;9.776;2023-02-26T10:30:35;3.40;;;3.10;;
7919;SDS011;18778;47.610;9.776;2023-02-26T10:33:17;3.40;;;3.20;;
7919;SDS011;18778;47.610;9.776;2023-02-26T10:38:48;3.57;;;3.27;;
7919;SDS011;18778;47.610;9.776;2023-02-26T10:41:19;4.03;;;3.63;;
7919;SDS011;18778;47.610;9.776;2023-02-26T10:52:27;3.53;;;3.10;;
7919;SDS011;18778;47.610;9.776;2023-02-26T10:57:54;3.60;;;3.30;;
7919;SDS011;18778;47.610;9.776;2023-02-26T11:00:27;3.83;;;3.10;;
7919;SDS011;18778;47.610;9.776;2023-02-26T11:02:53;5.07;;;3.70;;
7919;SDS011;18778;47.610;9.776;2023-02-26T11:05:21;4.27;;;3.77;;
7919;SDS011;18778;47.610;9.776;2023-02-26T11:07:52;3.20;;;3.00;;
7919;SDS011;18778;47.610;9.776;2023-02-26T11:10:22;5.97;;;2.60;;
7919;SDS011;18778;47.610;9.776;2023-02-26T11:12:50;4.50;;;3.80;;
7919;SDS011;18778;47.610;9.776;2023-02-26T11:15:18;3.73;;;3.43;;
7919;SDS011;18778;47.610;9.776;2023-02-26T11:17:52;5.43;;;3.60;;
7919;SDS011;18778;47.610;9.776;2023-02-26T11:20:24;4.50;;;3.77;;
7919;SDS011;18778;47.610;9.776;2023-02-26T11:22:55;4.17;;;3.77;;
7919;SDS011;18778;47.610;9.776;2023-02-26T11:25:24;5.20;;;4.20;;
7919;SDS011;18778;47.610;9.776;2023-02-26T11:28:03;4.80;;;4.00;;
7919;SDS011;18778;47.610;9.776;2023-02-26T11:30:34;3.87;;;3.47;;
7919;SDS011;18778;47.610;9.776;2023-02-26T11:33:19;3.63;;;3.33;;
7919;SDS011;18778;47.610;9.776;2023-02-26T11:35:48;3.53;;;3.33;;
7919;SDS011;18778;47.610;9.776;2023-02-26T11:38:19;3.17;;;2.90;;
7919;SDS011;18778;47.610;9.776;2023-02-26T11:40:51;3.23;;;3.00;;
7919;SDS011;18778;47.610;9.776;2023-02-26T11:43:20;2.90;;;2.70;;
7919;SDS011;18778;47.610;9.776;2023-02-26T11:45:48;3.90;;;3.27;;
7919;SDS011;18778;47.610;9.776;2023-02-26T11:48:22;3.50;;;3.20;;
7919;SDS011;18778;47.610;9.776;2023-02-26T11:50:55;3.33;;;3.10;;
7919;SDS011;18778;47.610;9.776;2023-02-26T11:53:25;5.33;;;3.37;;
7919;SDS011;18778;47.610;9.776;2023-02-26T11:56:11;3.40;;;2.80;;
7919;SDS011;18778;47.610;9.776;2023-02-26T12:01:45;5.50;;;3.00;;
7919;SDS011;18778;47.610;9.776;2023-02-26T12:04:13;3.27;;;3.07;;
7919;SDS011;18778;47.610;9.776;2023-02-26T12:06:45;3.10;;;2.80;;
7919;SDS011;18778;47.610;9.776;2023-02-26T12:09:14;3.60;;;3.30;;
7919;SDS011;18778;47.610;9.776;2023-02-26T12:11:47;3.60;;;3.40;;
7919;SDS011;18778;47.610;9.776;2023-02-26T12:14:28;3.37;;;3.07;;
7919;SDS011;18778;47.610;9.776;2023-02-26T12:20:00;3.23;;;2.93;;
7919;SDS011;18778;47.610;9.776;2023-02-26T12:33:31;3.80;;;3.50;;
7919;SDS011;18778;47.610;9.776;2023-02-26T12:36:16;4.17;;;3.60;;
7919;SDS011;18778;47.610;9.776;2023-02-26T12:39:26;3.47;;;3.20;;
7919;SDS011;18778;47.610;9.776;2023-02-26T12:50:18;3.63;;;3.33;;
7919;SDS011;18778;47.610;9.776;2023-02-26T12:55:59;3.77;;;3.27;;
7919;SDS011;18778;47.610;9.776;2023-02-26T12:58:24;3.93;;;3.63;;
7919;SDS011;18778;47.610;9.776;2023-02-26T13:13:01;3.13;;;2.93;;
7919;SDS011;18778;47.610;9.776;2023-02-26T13:21:01;4.23;;;3.60;;
7919;SDS011;18778;47.610;9.776;2023-02-26T13:23:33;4.00;;;3.70;;
7919;SDS011;18778;47.610;9.776;2023-02-26T13:26:06;7.93;;;7.23;;
7919;SDS011;18778;47.610;9.776;2023-02-26T13:28:44;6.20;;;5.70;;
7919;SDS011;18778;47.610;9.776;2023-02-26T13:34:00;5.07;;;4.57;;
7919;SDS011;18778;47.610;9.776;2023-02-26T13:36:30;5.33;;;4.37;;
7919;SDS011;18778;47.610;9.776;2023-02-26T13:38:59;3.20;;;3.00;;
7919;SDS011;18778;47.610;9.776;2023-02-26T13:52:53;4.33;;;3.93;;
7919;SDS011;18778;47.610;9.776;2023-02-26T13:55:40;3.80;;;3.50;;
7919;SDS011;18778;47.610;9.776;2023-02-26T14:01:47;3.20;;;3.00;;
7919;SDS011;18778;47.610;9.776;2023-02-26T14:04:00;3.23;;;2.93;;
7919;SDS011;18778;47.610;9.776;2023-02-26T14:09:02;3.10;;;2.90;;
7919;SDS011;18778;47.610;9.776;2023-02-26T14:11:37;3.20;;;3.00;;
7919;SDS011;18778;47.610;9.776;2023-02-26T14:14:39;3.23;;;3.03;;
7919;SDS011;18778;47.610;9.776;2023-02-26T14:19:36;3.70;;;3.40;;
7919;SDS011;18778;47.610;9.776;2023-02-26T14:22:19;4.37;;;3.20;;
7919;SDS011;18778;47.610;9.776;2023-02-26T14:27:40;3.90;;;3.60;;
7919;SDS011;18778;47.610;9.776;2023-02-26T14:32:46;4.43;;;4.00;;
7919;SDS011;18778;47.610;9.776;2023-02-26T14:35:14;4.47;;;4.17;;
7919;SDS011;18778;47.610;9.776;2023-02-26T14:38:02;4.27;;;3.97;;
7919;SDS011;18778;47.610;9.776;2023-02-26T14:40:39;4.20;;;3.90;;
7919;SDS011;18778;47.610;9.776;2023-02-26T14:43:13;5.10;;;4.70;;
7919;SDS011;18778;47.610;9.776;2023-02-26T14:45:44;4.60;;;4.20;;
7919;SDS011;18778;47.610;9.776;2023-02-26T14:48:14;4.40;;;4.10;;
7919;SDS011;18778;47.610;9.776;2023-02-26T14:53:48;5.80;;;5.30;;
7919;SDS011;18778;47.610;9.776;2023-02-26T14:56:46;8.63;;;7.73;;
7919;SDS011;18778;47.610;9.776;2023-02-26T15:04:56;4.17;;;3.77;;
7919;SDS011;18778;47.610;9.776;2023-02-26T15:07:33;4.20;;;3.90;;
7919;SDS011;18778;47.610;9.776;2023-02-26T15:10:16;4.07;;;3.77;;
7919;SDS011;18778;47.610;9.776;2023-02-26T15:13:18;4.27;;;3.97;;
7919;SDS011;18778;47.610;9.776;2023-02-26T15:15:55;4.07;;;3.77;;
7919;SDS011;18778;47.610;9.776;2023-02-26T15:24:08;4.70;;;4.30;;
7919;SDS011;18778;47.610;9.776;2023-02-26T15:26:39;4.87;;;4.47;;
7919;SDS011;18778;47.610;9.776;2023-02-26T15:29:14;5.50;;;4.70;;
7919;SDS011;18778;47.610;9.776;2023-02-26T15:31:42;5.90;;;5.40;;
7919;SDS011;18778;47.610;9.776;2023-02-26T15:34:11;5.63;;;5.13;;
7919;SDS011;18778;47.610;9.776;2023-02-26T15:36:42;4.90;;;4.50;;
7919;SDS011;18778;47.610;9.776;2023-02-26T15:39:09;5.70;;;5.30;;
7919;SDS011;18778;47.610;9.776;2023-02-26T15:41:39;5.10;;;4.53;;
7919;SDS011;18778;47.610;9.776;2023-02-26T15:44:06;5.03;;;4.53;;
7919;SDS011;18778;47.610;9.776;2023-02-26T15:46:36;5.80;;;5.20;;
7919;SDS011;18778;47.610;9.776;2023-02-26T15:49:12;5.30;;;4.47;;
7919;SDS011;18778;47.610;9.776;2023-02-26T15:51:51;4.50;;;4.20;;
7919;SDS011;18778;47.610;9.776;2023-02-26T15:54:20;3.90;;;3.60;;
7919;SDS011;18778;47.610;9.776;2023-02-26T15:56:48;8.13;;;6.60;;
7919;SDS011;18778;47.610;9.776;2023-02-26T15:59:18;9.67;;;8.00;;
7919;SDS011;18778;47.610;9.776;2023-02-26T16:01:49;4.43;;;4.13;;
7919;SDS011;18778;47.610;9.776;2023-02-26T16:04:16;5.40;;;5.00;;
7919;SDS011;18778;47.610;9.776;2023-02-26T16:06:45;4.47;;;4.17;;
7919;SDS011;18778;47.610;9.776;2023-02-26T16:11:57;3.33;;;3.13;;
7919;SDS011;18778;47.610;9.776;2023-02-26T16:14:26;3.47;;;3.17;;
7919;SDS011;18778;47.610;9.776;2023-02-26T16:16:56;3.13;;;2.97;;
7919;SDS011;18778;47.610;9.776;2023-02-26T16:19:37;3.50;;;3.20;;
7919;SDS011;18778;47.610;9.776;2023-02-26T16:22:35;3.87;;;3.63;;
7919;SDS011;18778;47.610;9.776;2023-02-26T16:25:36;3.67;;;3.40;;
7919;SDS011;18778;47.610;9.776;2023-02-26T16:28:05;4.30;;;3.97;;
7919;SDS011;18778;47.610;9.776;2023-02-26T16:30:38;6.80;;;5.63;;
7919;SDS011;18778;47.610;9.776;2023-02-26T16:33:11;4.50;;;4.20;;
7919;SDS011;18778;47.610;9.776;2023-02-26T16:35:41;4.40;;;4.00;;
7919;SDS011;18778;47.610;9.776;2023-02-26T16:38:19;3.80;;;3.60;;
7919;SDS011;18778;47.610;9.776;2023-02-26T16:40:57;4.17;;;3.87;;
7919;SDS011;18778;47.610;9.776;2023-02-26T16:43:58;4.03;;;3.57;;
7919;SDS011;18778;47.610;9.776;2023-02-26T16:46:26;5.40;;;4.90;;
7919;SDS011;18778;47.610;9.776;2023-02-26T16:51:21;5.03;;;4.60;;
7919;SDS011;18778;47.610;9.776;2023-02-26T16:53:57;4.83;;;4.40;;
7919;SDS011;18778;47.610;9.776;2023-02-26T16:56:26;4.00;;;3.70;;
7919;SDS011;18778;47.610;9.776;2023-02-26T16:59:01;4.80;;;4.40;;
7919;SDS011;18778;47.610;9.776;2023-02-26T17:01:34;5.40;;;4.90;;
7919;SDS011;18778;47.610;9.776;2023-02-26T17:04:04;4.90;;;4.40;;
7919;SDS011;18778;47.610;9.776;2023-02-26T17:06:31;5.43;;;4.67;;
7919;SDS011;18778;47.610;9.776;2023-02-26T17:09:00;4.63;;;4.27;;
7919;SDS011;18778;47.610;9.776;2023-02-26T17:11:35;6.93;;;5.63;;
7919;SDS011;18778;47.610;9.776;2023-02-26T17:16:37;5.50;;;5.00;;
7919;SDS011;18778;47.610;9.776;2023-02-26T17:19:03;5.90;;;5.40;;
7919;SDS011;18778;47.610;9.776;2023-02-26T17:21:29;6.03;;;5.47;;
7919;SDS011;18778;47.610;9.776;2023-02-26T17:23:55;5.80;;;5.27;;
7919;SDS011;18778;47.610;9.776;2023-02-26T17:26:21;5.37;;;4.87;;
7919;SDS011;18778;47.610;9.776;2023-02-26T17:28:47;6.33;;;5.30;;
7919;SDS011;18778;47.610;9.776;2023-02-26T17:31:13;11.93;;;7.47;;
7919;SDS011;18778;47.610;9.776;2023-02-26T17:33:40;9.33;;;6.30;;
7919;SDS011;18778;47.610;9.776;2023-02-26T17:36:09;10.20;;;7.20;;
7919;SDS011;18778;47.610;9.776;2023-02-26T17:38:38;7.53;;;6.20;;
7919;SDS011;18778;47.610;9.776;2023-02-26T17:41:06;8.17;;;6.57;;
7919;SDS011;18778;47.610;9.776;2023-02-26T17:43:36;6.97;;;5.60;;
7919;SDS011;18778;47.610;9.776;2023-02-26T17:46:03;8.53;;;6.60;;
7919;SDS011;18778;47.610;9.776;2023-02-26T17:48:28;6.43;;;5.67;;
7919;SDS011;18778;47.610;9.776;2023-02-26T17:50:55;6.43;;;5.37;;
7919;SDS011;18778;47.610;9.776;2023-02-26T17:53:22;6.83;;;5.33;;
7919;SDS011;18778;47.610;9.776;2023-02-26T17:55:57;7.67;;;5.30;;
7919;SDS011;18778;47.610;9.776;2023-02-26T17:58:27;7.00;;;5.90;;
7919;SDS011;18778;47.610;9.776;2023-02-26T18:01:00;6.10;;;5.50;;
7919;SDS011;18778;47.610;9.776;2023-02-26T18:03:27;7.60;;;5.90;;
7919;SDS011;18778;47.610;9.776;2023-02-26T18:05:53;7.13;;;5.80;;
7919;SDS011;18778;47.610;9.776;2023-02-26T18:10:46;5.97;;;5.33;;
7919;SDS011;18778;47.610;9.776;2023-02-26T18:13:12;6.93;;;6.23;;
7919;SDS011;18778;47.610;9.776;2023-02-26T18:15:38;5.97;;;5.47;;
7919;SDS011;18778;47.610;9.776;2023-02-26T18:18:04;6.23;;;5.53;;